Impacts TAF Board
For situational awareness. Not to be used for flight planning purposes.
IDs:

KBFM - Mobile/Downtown Arpt, AL, US

Issued at 1120 UTC 16 Aug 2022
Updated at 1348 UTC 16 Aug 2022
Potential Impact None Slight Moderate High
Time<<17/02Z 17/03Z 17/04Z 17/05Z 17/06Z 17/07Z 17/08Z 17/09Z 17/10Z 17/11Z 17/12Z 17/13Z 17/14Z>>
Type PRVL PRVL PRVL PRVL PRVL PRVL PRVL PRVL PRVL PRVL
VIS >6 >6 >6 >6 >6 >6 >6 >6 >6 >6
CIG 100 100 -- -- -- -- -- -- -- --
Cover BKN BKN SCT SCT SCT SCT SCT SCT SCT SCT
FltCat VFR VFR VFR VFR VFR VFR VFR VFR VFR VFR
WX VCTS VCTS -- -- -- -- -- -- -- --
WDir 290 290 320 320 320 320 320 320 320 320
WSpd 7 7 5 5 5 5 5 5 5 5
WGst -- -- -- -- -- -- -- -- -- --
WSHgt -- -- -- -- -- -- -- -- -- --
WSDir -- -- -- -- -- -- -- -- -- --
WSSpd -- -- -- -- -- -- -- -- -- --
Raw TAF
KBFM 161120Z 1612/1712 27004KT P6SM FEW050 SCT250
  FM161900 27007KT P6SM SCT040 SCT130 SCT250
  FM170000 29007KT P6SM VCTS SCT040CB BKN100
  FM170400 32005KT P6SM FEW050 SCT150


METAR Board
Radar Display
Forecast Discussion
For situational awareness. Not to be used for flight planning purposes.